Time;durP1;ratioP1;P1;durP2;ratioP2;P2;SDS_P1;SDS_P2;PMS_P1;PMS_P2;Temp;Humidity;BMP_temperature;BMP_pressure;BME280_temperature;BME280_humidity;BME280_pressure;Samples;Min_cycle;Max_cycle;Signal;HPM_P1;HPM_P2
2023/05/05 00:00:51;;;;;;;7.77;3.93;;;;;;;;;;4986609;28;20039;-62
2023/05/05 00:03:19;;;;;;;5.33;3.87;;;;;;;;;;4983010;28;20074;-61
2023/05/05 00:05:45;;;;;;;7.33;4.33;;;;;;;;;;4989400;28;20045;-58
2023/05/05 00:08:10;;;;;;;5.20;4.27;;;;;;;;;;4977452;28;20369;-59
2023/05/05 00:10:36;;;;;;;6.23;3.90;;;;;;;;;;4983439;28;20043;-59
2023/05/05 00:13:01;;;;;;;5.10;4.00;;;;;;;;;;4984128;28;20140;-60
2023/05/05 00:15:27;;;;;;;6.43;4.20;;;;;;;;;;4983384;28;20031;-60
2023/05/05 00:17:53;;;;;;;7.00;3.50;;;;;;;;;;4982646;28;20062;-59
2023/05/05 00:20:18;;;;;;;4.30;3.90;;;;;;;;;;4982019;28;20683;-59
2023/05/05 00:22:44;;;;;;;7.60;3.97;;;;;;;;;;4981987;28;20578;-60
2023/05/05 00:25:09;;;;;;;5.63;4.13;;;;;;;;;;4981933;28;20027;-60
2023/05/05 00:27:35;;;;;;;5.27;4.30;;;;;;;;;;4982014;28;21051;-59
2023/05/05 00:30:00;;;;;;;7.23;4.23;;;;;;;;;;4982798;28;20037;-59
2023/05/05 00:32:26;;;;;;;3.93;3.37;;;;;;;;;;4984494;28;20488;-59
2023/05/05 00:34:52;;;;;;;6.33;4.23;;;;;;;;;;4967688;28;20425;-60
2023/05/05 00:37:18;;;;;;;5.37;3.50;;;;;;;;;;4986854;28;20030;-65
2023/05/05 00:39:43;;;;;;;4.10;3.63;;;;;;;;;;4986434;28;20050;-62
2023/05/05 00:42:09;;;;;;;6.97;4.27;;;;;;;;;;4986715;28;20030;-60
2023/05/05 00:44:36;;;;;;;6.10;4.87;;;;;;;;;;4986649;28;20505;-59
2023/05/05 00:47:02;;;;;;;10.73;4.37;;;;;;;;;;4981686;28;20348;-59
2023/05/05 00:49:28;;;;;;;6.00;4.93;;;;;;;;;;4997583;28;20349;-60
2023/05/05 00:51:54;;;;;;;6.67;4.17;;;;;;;;;;4988034;28;20073;-60
2023/05/05 00:54:19;;;;;;;4.60;3.97;;;;;;;;;;4982271;28;20046;-60
2023/05/05 00:56:46;;;;;;;4.10;3.70;;;;;;;;;;4979978;28;20125;-59
2023/05/05 00:59:12;;;;;;;4.63;3.93;;;;;;;;;;4981927;28;20030;-60
2023/05/05 01:01:38;;;;;;;4.23;3.80;;;;;;;;;;4979912;28;20038;-60
2023/05/05 01:04:03;;;;;;;6.73;4.13;;;;;;;;;;4982618;28;20030;-60
2023/05/05 01:06:40;;;;;;;5.07;3.40;;;;;;;;;;4981505;28;20038;-58
2023/05/05 01:09:06;;;;;;;5.03;3.77;;;;;;;;;;4980482;28;20034;-59
2023/05/05 01:11:38;;;;;;;5.77;4.43;;;;;;;;;;4981961;28;20433;-59
2023/05/05 01:14:09;;;;;;;8.83;4.63;;;;;;;;;;4984293;28;20038;-59
2023/05/05 01:16:36;;;;;;;4.67;4.00;;;;;;;;;;4986121;28;20577;-59
2023/05/05 01:19:20;;;;;;;7.03;4.07;;;;;;;;;;4980171;28;20035;-59
2023/05/05 01:21:48;;;;;;;7.23;4.50;;;;;;;;;;4981915;28;20040;-60
2023/05/05 01:24:33;;;;;;;5.90;4.17;;;;;;;;;;4983018;28;20068;-59
2023/05/05 01:27:34;;;;;;;5.03;4.20;;;;;;;;;;4979794;28;20366;-59
2023/05/05 01:30:18;;;;;;;4.03;3.27;;;;;;;;;;4946079;28;20133;-62
2023/05/05 01:32:47;;;;;;;5.63;3.90;;;;;;;;;;4947376;28;20059;-58
2023/05/05 01:35:15;;;;;;;5.20;3.97;;;;;;;;;;4944872;28;20067;-60
2023/05/05 01:37:53;;;;;;;5.33;3.90;;;;;;;;;;4946822;28;20507;-58
2023/05/05 01:40:20;;;;;;;5.73;4.83;;;;;;;;;;4924317;28;20039;-59
2023/05/05 01:42:46;;;;;;;8.77;4.10;;;;;;;;;;4945818;28;20191;-59
2023/05/05 01:45:13;;;;;;;5.37;4.57;;;;;;;;;;4944168;28;20047;-59
2023/05/05 01:47:39;;;;;;;6.57;3.80;;;;;;;;;;4947194;28;20562;-60
2023/05/05 01:50:05;;;;;;;4.57;3.73;;;;;;;;;;4945350;28;20043;-60
2023/05/05 01:52:31;;;;;;;8.87;3.80;;;;;;;;;;4945333;28;20055;-60
2023/05/05 01:54:57;;;;;;;4.50;3.43;;;;;;;;;;4912427;28;20047;-61
2023/05/05 01:57:23;;;;;;;5.90;4.03;;;;;;;;;;4930810;28;20075;-59
2023/05/05 01:59:50;;;;;;;4.30;3.67;;;;;;;;;;4946493;28;20043;-60
2023/05/05 02:02:17;;;;;;;5.03;4.00;;;;;;;;;;4945066;28;20043;-59
2023/05/05 02:04:43;;;;;;;5.37;3.87;;;;;;;;;;4970658;28;20184;-60
2023/05/05 02:07:11;;;;;;;4.57;3.47;;;;;;;;;;4996599;28;20040;-60
2023/05/05 02:09:37;;;;;;;4.63;3.80;;;;;;;;;;4979185;28;20340;-59
2023/05/05 02:12:03;;;;;;;4.37;3.97;;;;;;;;;;4980698;28;20050;-60
2023/05/05 02:14:29;;;;;;;7.90;4.77;;;;;;;;;;4994703;28;20042;-60
2023/05/05 02:16:55;;;;;;;4.70;4.20;;;;;;;;;;4981012;28;20061;-59
2023/05/05 02:19:23;;;;;;;7.23;3.93;;;;;;;;;;4981002;28;20287;-60
2023/05/05 02:21:48;;;;;;;5.67;3.50;;;;;;;;;;4979975;28;20040;-60
2023/05/05 02:24:13;;;;;;;5.10;3.50;;;;;;;;;;4979752;28;20046;-60
2023/05/05 02:26:39;;;;;;;4.77;3.80;;;;;;;;;;4979691;28;20038;-59
2023/05/05 02:29:08;;;;;;;6.73;3.80;;;;;;;;;;4980724;28;20109;-59
2023/05/05 02:31:35;;;;;;;4.57;3.60;;;;;;;;;;4981337;28;20037;-60
2023/05/05 02:34:02;;;;;;;5.00;3.50;;;;;;;;;;4968386;28;20611;-59
2023/05/05 02:36:36;;;;;;;6.37;4.23;;;;;;;;;;4970747;28;20038;-60
2023/05/05 02:39:05;;;;;;;6.47;3.83;;;;;;;;;;4981797;28;20515;-60
2023/05/05 02:41:37;;;;;;;4.77;3.80;;;;;;;;;;4975096;28;20349;-60
2023/05/05 02:44:08;;;;;;;4.07;3.37;;;;;;;;;;4987447;28;20081;-60
2023/05/05 02:46:36;;;;;;;6.13;4.37;;;;;;;;;;4983740;28;20103;-60
2023/05/05 02:49:01;;;;;;;7.57;4.83;;;;;;;;;;4978471;28;20077;-60
2023/05/05 02:51:27;;;;;;;7.60;4.17;;;;;;;;;;4980472;28;20185;-59
2023/05/05 02:53:55;;;;;;;5.67;3.90;;;;;;;;;;4977369;28;20043;-60
2023/05/05 02:56:33;;;;;;;8.30;3.63;;;;;;;;;;4977200;28;20485;-60
2023/05/05 02:59:02;;;;;;;5.47;4.07;;;;;;;;;;4994455;28;20037;-60
2023/05/05 03:01:36;;;;;;;7.47;4.37;;;;;;;;;;4979176;28;20033;-61
2023/05/05 03:04:09;;;;;;;5.83;4.50;;;;;;;;;;4969276;28;20037;-59
2023/05/05 03:06:41;;;;;;;9.17;3.80;;;;;;;;;;4997215;28;20104;-59
2023/05/05 03:09:13;;;;;;;5.67;4.10;;;;;;;;;;4977577;28;20058;-59
2023/05/05 03:11:53;;;;;;;7.27;3.90;;;;;;;;;;4978957;28;20047;-61
2023/05/05 03:14:20;;;;;;;5.07;3.70;;;;;;;;;;4981958;28;20685;-59
2023/05/05 03:16:48;;;;;;;6.87;4.80;;;;;;;;;;4970619;28;20050;-59
2023/05/05 03:19:15;;;;;;;7.03;3.70;;;;;;;;;;4984206;28;20083;-60
2023/05/05 03:21:41;;;;;;;6.93;4.03;;;;;;;;;;4983694;28;20435;-58
2023/05/05 03:24:16;;;;;;;4.17;3.77;;;;;;;;;;4987762;28;20336;-58
2023/05/05 03:26:46;;;;;;;6.60;4.77;;;;;;;;;;5001613;28;20177;-60
2023/05/05 03:29:12;;;;;;;4.97;4.20;;;;;;;;;;4985968;28;20726;-59
2023/05/05 03:31:38;;;;;;;4.57;4.17;;;;;;;;;;4983399;28;20046;-60
2023/05/05 03:34:04;;;;;;;5.13;4.30;;;;;;;;;;4999146;28;20126;-59
2023/05/05 03:36:37;;;;;;;5.30;4.20;;;;;;;;;;4996890;28;20054;-60
2023/05/05 03:39:02;;;;;;;8.17;4.40;;;;;;;;;;4986681;28;20108;-59
2023/05/05 03:41:31;;;;;;;5.20;4.70;;;;;;;;;;4998223;28;20046;-58
2023/05/05 03:43:57;;;;;;;5.10;4.43;;;;;;;;;;4988264;28;20057;-58
2023/05/05 03:46:23;;;;;;;8.20;4.53;;;;;;;;;;4985760;28;20030;-59
2023/05/05 03:48:48;;;;;;;7.67;4.87;;;;;;;;;;4981367;28;20037;-58
2023/05/05 03:51:14;;;;;;;7.37;4.80;;;;;;;;;;4983894;28;20082;-60
2023/05/05 03:53:40;;;;;;;4.43;3.77;;;;;;;;;;4984681;28;20068;-58
2023/05/05 03:56:06;;;;;;;5.93;4.00;;;;;;;;;;4988595;28;20030;-58
2023/05/05 03:58:32;;;;;;;9.60;4.13;;;;;;;;;;4986504;28;20030;-57
2023/05/05 04:00:58;;;;;;;5.13;4.20;;;;;;;;;;4983576;28;20047;-57
2023/05/05 04:03:24;;;;;;;5.30;4.43;;;;;;;;;;4988940;28;20072;-57
2023/05/05 04:05:49;;;;;;;5.57;4.07;;;;;;;;;;4981113;28;20127;-58
2023/05/05 04:08:15;;;;;;;12.03;4.77;;;;;;;;;;4973153;28;20088;-63
2023/05/05 04:10:40;;;;;;;5.03;4.07;;;;;;;;;;4985906;28;20113;-59
2023/05/05 04:13:07;;;;;;;4.77;4.20;;;;;;;;;;4988201;28;20050;-58
2023/05/05 04:15:33;;;;;;;5.43;4.33;;;;;;;;;;4996875;28;20657;-58
2023/05/05 04:17:59;;;;;;;7.53;4.57;;;;;;;;;;4983472;28;20468;-62
2023/05/05 04:20:25;;;;;;;6.13;3.83;;;;;;;;;;4988108;28;20504;-59
2023/05/05 04:22:51;;;;;;;7.63;4.53;;;;;;;;;;4973567;28;20058;-60
2023/05/05 04:25:16;;;;;;;7.40;5.37;;;;;;;;;;4985073;28;20035;-60
2023/05/05 04:27:43;;;;;;;5.73;4.67;;;;;;;;;;4981820;28;20145;-58
2023/05/05 04:30:09;;;;;;;7.20;4.40;;;;;;;;;;4983958;28;20031;-59
2023/05/05 04:32:36;;;;;;;4.20;3.87;;;;;;;;;;4972468;28;20111;-60
2023/05/05 04:35:02;;;;;;;8.43;4.80;;;;;;;;;;4980906;28;20041;-58
2023/05/05 04:37:28;;;;;;;8.90;4.30;;;;;;;;;;4972580;28;20035;-59
2023/05/05 04:39:54;;;;;;;6.97;4.00;;;;;;;;;;4984025;28;20061;-59
2023/05/05 04:42:20;;;;;;;6.03;4.50;;;;;;;;;;4984023;28;20043;-59
2023/05/05 04:44:45;;;;;;;6.37;4.13;;;;;;;;;;4986457;28;20723;-59
2023/05/05 04:47:11;;;;;;;6.00;4.30;;;;;;;;;;4984853;28;20035;-60
2023/05/05 04:49:36;;;;;;;5.23;4.23;;;;;;;;;;4985248;28;20085;-59
2023/05/05 04:52:02;;;;;;;6.20;4.43;;;;;;;;;;4989181;28;20042;-59
2023/05/05 04:54:27;;;;;;;5.33;4.00;;;;;;;;;;4985935;28;20652;-59
2023/05/05 04:56:53;;;;;;;6.03;4.50;;;;;;;;;;4983804;28;20398;-59
2023/05/05 04:59:19;;;;;;;13.67;4.77;;;;;;;;;;4982528;28;20516;-57
2023/05/05 05:01:45;;;;;;;5.73;4.53;;;;;;;;;;4991209;28;20042;-59
2023/05/05 05:04:11;;;;;;;6.93;5.63;;;;;;;;;;4986793;28;20053;-60
2023/05/05 05:06:37;;;;;;;5.47;3.63;;;;;;;;;;4983069;28;20368;-61
2023/05/05 05:09:02;;;;;;;6.20;4.23;;;;;;;;;;4987974;28;20030;-61
2023/05/05 05:11:28;;;;;;;4.87;3.73;;;;;;;;;;4978535;28;20431;-56
2023/05/05 05:13:53;;;;;;;5.80;3.73;;;;;;;;;;4987046;28;20040;-59
2023/05/05 05:16:19;;;;;;;4.90;3.90;;;;;;;;;;4981490;28;20047;-60
2023/05/05 05:18:44;;;;;;;6.17;4.83;;;;;;;;;;4987351;28;20035;-60
2023/05/05 05:21:10;;;;;;;8.10;3.72;;;;;;;;;;4986599;28;20041;-60
2023/05/05 05:23:35;;;;;;;7.50;3.97;;;;;;;;;;4977867;28;20135;-61
2023/05/05 05:26:01;;;;;;;5.65;3.67;;;;;;;;;;4981789;28;20034;-61
2023/05/05 05:28:27;;;;;;;6.45;3.85;;;;;;;;;;4980599;28;20089;-61
2023/05/05 05:30:56;;;;;;;6.60;4.20;;;;;;;;;;4992441;28;20038;-61
2023/05/05 05:33:22;;;;;;;6.38;4.47;;;;;;;;;;4984712;28;20579;-62
2023/05/05 05:35:48;;;;;;;11.15;4.97;;;;;;;;;;4995120;28;20061;-61
2023/05/05 05:38:14;;;;;;;4.75;3.67;;;;;;;;;;4983701;28;20478;-62
2023/05/05 05:40:40;;;;;;;6.35;4.50;;;;;;;;;;4971467;28;20061;-59
2023/05/05 05:43:06;;;;;;;5.90;5.30;;;;;;;;;;4984574;28;20136;-61
2023/05/05 05:45:32;;;;;;;7.72;4.88;;;;;;;;;;4978639;28;20073;-62
2023/05/05 05:47:58;;;;;;;5.20;4.53;;;;;;;;;;4977638;28;20649;-61
2023/05/05 05:50:26;;;;;;;6.00;5.20;;;;;;;;;;4984598;28;20038;-61
2023/05/05 05:52:51;;;;;;;7.55;4.40;;;;;;;;;;4986471;28;20346;-60
2023/05/05 05:55:18;;;;;;;6.07;4.40;;;;;;;;;;4981974;28;20117;-60
2023/05/05 05:57:44;;;;;;;5.80;5.03;;;;;;;;;;4980147;28;20784;-59
2023/05/05 06:00:11;;;;;;;5.53;4.72;;;;;;;;;;4984474;28;20073;-59
2023/05/05 06:02:42;;;;;;;4.80;4.22;;;;;;;;;;4984085;28;20042;-60
2023/05/05 06:05:12;;;;;;;6.00;5.40;;;;;;;;;;4995063;28;20049;-60
2023/05/05 06:07:40;;;;;;;5.00;4.50;;;;;;;;;;4996378;28;20045;-59
2023/05/05 06:10:06;;;;;;;7.22;4.20;;;;;;;;;;4978595;28;20057;-60
2023/05/05 06:12:31;;;;;;;7.13;5.00;;;;;;;;;;4987335;28;20493;-61
2023/05/05 06:14:56;;;;;;;7.70;4.85;;;;;;;;;;4983204;28;20568;-61
2023/05/05 06:17:22;;;;;;;6.13;5.05;;;;;;;;;;4977023;28;20054;-59
2023/05/05 06:19:48;;;;;;;7.85;4.93;;;;;;;;;;4980138;28;20036;-62
2023/05/05 06:22:13;;;;;;;6.30;5.05;;;;;;;;;;4981832;28;20069;-60
2023/05/05 06:24:39;;;;;;;6.72;5.47;;;;;;;;;;4979608;28;20042;-60
2023/05/05 06:27:05;;;;;;;12.45;6.15;;;;;;;;;;4980356;28;20027;-60
2023/05/05 06:29:30;;;;;;;6.03;5.00;;;;;;;;;;4978898;28;20049;-60
2023/05/05 06:31:56;;;;;;;5.80;5.25;;;;;;;;;;4980773;28;20482;-60
2023/05/05 06:34:21;;;;;;;5.82;5.22;;;;;;;;;;4979727;28;20043;-59
2023/05/05 06:36:46;;;;;;;7.20;4.88;;;;;;;;;;4977911;28;20080;-60
2023/05/05 06:39:12;;;;;;;5.10;4.60;;;;;;;;;;4979917;28;20511;-60
2023/05/05 06:41:37;;;;;;;7.30;5.38;;;;;;;;;;4978817;28;20038;-60
2023/05/05 06:44:03;;;;;;;8.93;4.93;;;;;;;;;;4982771;28;20038;-60
2023/05/05 06:46:28;;;;;;;9.52;6.25;;;;;;;;;;4984763;28;20029;-61
2023/05/05 06:48:54;;;;;;;10.93;6.20;;;;;;;;;;4979962;28;20070;-58
2023/05/05 06:51:20;;;;;;;7.22;5.80;;;;;;;;;;4979950;28;20559;-58
2023/05/05 06:53:45;;;;;;;5.60;5.10;;;;;;;;;;4979553;28;20069;-59
2023/05/05 06:56:11;;;;;;;6.43;5.63;;;;;;;;;;4984618;28;20452;-59
2023/05/05 06:58:36;;;;;;;6.40;5.72;;;;;;;;;;4985195;28;20552;-59
2023/05/05 07:01:02;;;;;;;9.48;6.70;;;;;;;;;;4985070;28;20049;-60
2023/05/05 07:03:28;;;;;;;6.70;5.97;;;;;;;;;;4984214;28;20050;-60
2023/05/05 07:05:53;;;;;;;7.53;6.30;;;;;;;;;;4985613;28;20227;-63
2023/05/05 07:08:19;;;;;;;15.02;8.10;;;;;;;;;;4986675;28;20431;-60
2023/05/05 07:10:46;;;;;;;7.85;6.18;;;;;;;;;;4986847;28;20035;-57
2023/05/05 07:13:11;;;;;;;9.10;6.72;;;;;;;;;;4974305;28;20030;-54
2023/05/05 07:15:42;;;;;;;9.23;8.32;;;;;;;;;;4986707;28;20311;-54
2023/05/05 07:18:08;;;;;;;6.15;5.55;;;;;;;;;;4986176;28;20132;-59
2023/05/05 07:20:33;;;;;;;12.77;6.80;;;;;;;;;;4983665;28;20121;-58
2023/05/05 07:22:59;;;;;;;10.00;6.82;;;;;;;;;;4985723;28;20089;-58
2023/05/05 07:25:25;;;;;;;8.48;6.70;;;;;;;;;;4982618;28;20409;-57
2023/05/05 07:27:51;;;;;;;7.90;6.80;;;;;;;;;;4984711;28;20068;-56
2023/05/05 07:30:16;;;;;;;10.05;6.82;;;;;;;;;;4985501;28;20477;-56
2023/05/05 07:32:42;;;;;;;9.02;6.60;;;;;;;;;;4984754;28;20561;-59
2023/05/05 07:35:07;;;;;;;8.15;6.13;;;;;;;;;;4982006;28;20109;-60
2023/05/05 07:37:33;;;;;;;10.23;7.25;;;;;;;;;;4984323;28;20154;-58
2023/05/05 07:39:58;;;;;;;7.65;6.55;;;;;;;;;;4980875;28;20512;-58
2023/05/05 07:42:24;;;;;;;7.40;6.45;;;;;;;;;;4981927;28;20046;-60
2023/05/05 07:44:49;;;;;;;7.10;6.40;;;;;;;;;;4983315;28;20405;-59
2023/05/05 07:47:15;;;;;;;8.70;6.70;;;;;;;;;;4982959;28;20035;-58
2023/05/05 07:49:40;;;;;;;8.52;7.13;;;;;;;;;;4986971;28;20042;-58
2023/05/05 07:52:06;;;;;;;9.32;6.38;;;;;;;;;;4983473;28;20532;-58
2023/05/05 07:54:31;;;;;;;12.80;8.93;;;;;;;;;;4987794;28;20105;-59
2023/05/05 07:56:57;;;;;;;6.68;5.97;;;;;;;;;;4985550;28;20500;-59
2023/05/05 07:59:22;;;;;;;8.15;6.53;;;;;;;;;;4982340;28;20030;-58
2023/05/05 08:01:48;;;;;;;9.20;6.82;;;;;;;;;;4981748;28;20157;-59
2023/05/05 08:04:13;;;;;;;9.23;6.45;;;;;;;;;;4981820;28;20472;-60
2023/05/05 08:06:39;;;;;;;8.77;7.13;;;;;;;;;;4985596;28;20062;-58
2023/05/05 08:09:04;;;;;;;13.55;7.60;;;;;;;;;;4981142;28;20043;-60
2023/05/05 08:11:30;;;;;;;11.25;6.72;;;;;;;;;;4981555;28;20031;-58
2023/05/05 08:13:55;;;;;;;11.38;6.63;;;;;;;;;;4983554;28;20039;-58
2023/05/05 08:16:20;;;;;;;7.70;6.90;;;;;;;;;;4984023;28;20126;-59
2023/05/05 08:18:46;;;;;;;7.68;6.75;;;;;;;;;;4981930;28;20038;-58
2023/05/05 08:21:11;;;;;;;10.57;7.18;;;;;;;;;;4983267;28;20034;-58
2023/05/05 08:23:37;;;;;;;9.93;7.20;;;;;;;;;;4984095;28;20418;-58
2023/05/05 08:26:05;;;;;;;8.82;7.22;;;;;;;;;;4983561;28;20017;-58
2023/05/05 08:28:31;;;;;;;10.90;7.05;;;;;;;;;;4981954;28;20034;-58
2023/05/05 08:30:57;;;;;;;9.70;7.72;;;;;;;;;;4984672;28;20081;-59
2023/05/05 08:33:23;;;;;;;8.93;7.70;;;;;;;;;;4985641;28;20054;-58
2023/05/05 08:35:48;;;;;;;9.63;7.85;;;;;;;;;;4983762;28;20048;-58
2023/05/05 08:38:14;;;;;;;9.52;8.40;;;;;;;;;;4981919;28;20189;-59
2023/05/05 08:40:40;;;;;;;8.80;7.95;;;;;;;;;;4985672;28;20035;-58
2023/05/05 08:43:05;;;;;;;9.60;7.95;;;;;;;;;;4981201;28;20038;-57
2023/05/05 08:45:31;;;;;;;9.98;7.32;;;;;;;;;;4981428;28;20144;-58
2023/05/05 08:48:03;;;;;;;8.57;7.25;;;;;;;;;;4983466;28;20034;-59
2023/05/05 08:50:30;;;;;;;7.50;6.57;;;;;;;;;;4984307;28;20497;-59
2023/05/05 08:53:15;;;;;;;10.52;7.07;;;;;;;;;;4982116;28;20042;-60
2023/05/05 08:55:49;;;;;;;9.77;7.72;;;;;;;;;;4982906;28;20042;-58
2023/05/05 08:58:16;;;;;;;7.57;6.88;;;;;;;;;;4983213;28;20054;-58
2023/05/05 09:00:43;;;;;;;9.32;6.40;;;;;;;;;;4980864;28;20033;-58
2023/05/05 09:03:10;;;;;;;11.65;6.93;;;;;;;;;;4980916;28;20022;-58
2023/05/05 09:05:36;;;;;;;9.80;8.57;;;;;;;;;;4967904;28;20302;-61
2023/05/05 09:08:03;;;;;;;8.10;7.20;;;;;;;;;;4981701;28;20087;-59
2023/05/05 09:10:29;;;;;;;6.40;5.80;;;;;;;;;;4982619;28;20053;-58
2023/05/05 09:12:55;;;;;;;7.28;6.60;;;;;;;;;;4978702;28;20567;-57
2023/05/05 09:15:21;;;;;;;6.47;5.68;;;;;;;;;;4978710;28;20035;-57
2023/05/05 09:17:46;;;;;;;7.05;6.35;;;;;;;;;;4977243;28;20057;-57
2023/05/05 09:20:12;;;;;;;6.68;5.88;;;;;;;;;;4978612;28;20045;-58
2023/05/05 09:22:38;;;;;;;8.55;6.13;;;;;;;;;;4980288;28;20425;-60
2023/05/05 09:25:13;;;;;;;7.10;6.20;;;;;;;;;;4978902;28;20185;-61
2023/05/05 09:27:40;;;;;;;9.57;6.68;;;;;;;;;;4979865;28;20042;-58
2023/05/05 09:30:06;;;;;;;6.95;6.38;;;;;;;;;;4982030;28;20042;-61
2023/05/05 09:32:45;;;;;;;10.80;7.85;;;;;;;;;;4984382;28;20088;-63
2023/05/05 09:35:10;;;;;;;8.00;7.07;;;;;;;;;;4979215;28;20113;-60
2023/05/05 09:37:37;;;;;;;7.10;6.50;;;;;;;;;;4977889;28;20363;-61
2023/05/05 09:40:04;;;;;;;8.57;7.60;;;;;;;;;;4980759;28;20117;-58
2023/05/05 09:42:29;;;;;;;7.57;6.63;;;;;;;;;;4979616;28;20042;-58
2023/05/05 09:44:55;;;;;;;9.07;7.40;;;;;;;;;;4981917;28;20490;-59
2023/05/05 09:47:21;;;;;;;10.15;6.60;;;;;;;;;;4981161;28;20034;-59
2023/05/05 09:49:57;;;;;;;9.52;7.00;;;;;;;;;;4982848;28;20029;-58
2023/05/05 09:52:23;;;;;;;7.22;6.50;;;;;;;;;;4981526;28;20042;-58
2023/05/05 09:54:52;;;;;;;8.70;5.90;;;;;;;;;;4979929;28;20074;-59
2023/05/05 09:57:24;;;;;;;6.18;5.55;;;;;;;;;;4979776;28;20129;-58
2023/05/05 09:59:53;;;;;;;7.07;6.32;;;;;;;;;;4981729;28;20031;-59
2023/05/05 10:02:18;;;;;;;11.57;6.10;;;;;;;;;;4977839;28;20141;-58
2023/05/05 10:04:44;;;;;;;7.15;6.35;;;;;;;;;;4982827;28;20044;-59
2023/05/05 10:07:20;;;;;;;7.65;5.68;;;;;;;;;;4980083;28;20670;-58
2023/05/05 10:09:46;;;;;;;26.10;14.93;;;;;;;;;;4980767;28;20168;-57
2023/05/05 10:12:12;;;;;;;7.45;6.55;;;;;;;;;;4984650;28;20909;-58
2023/05/05 10:14:37;;;;;;;12.35;5.78;;;;;;;;;;4978837;28;20521;-59
2023/05/05 10:17:03;;;;;;;6.22;5.75;;;;;;;;;;4980693;28;20050;-59
2023/05/05 10:19:33;;;;;;;7.88;6.50;;;;;;;;;;4978779;28;20100;-60
2023/05/05 10:22:02;;;;;;;8.35;6.00;;;;;;;;;;4983143;28;20093;-60
2023/05/05 10:24:27;;;;;;;6.68;6.07;;;;;;;;;;4979329;28;20045;-59
2023/05/05 10:26:55;;;;;;;7.72;6.25;;;;;;;;;;4976575;28;20630;-59
2023/05/05 10:29:38;;;;;;;7.35;6.28;;;;;;;;;;4979648;28;20035;-59
2023/05/05 10:32:10;;;;;;;7.22;5.93;;;;;;;;;;4981501;28;20032;-61
2023/05/05 10:34:46;;;;;;;10.68;6.47;;;;;;;;;;4982009;28;20046;-59
2023/05/05 10:37:11;;;;;;;6.57;5.82;;;;;;;;;;4979694;28;20062;-60
2023/05/05 10:39:37;;;;;;;12.50;7.15;;;;;;;;;;4981633;28;20113;-59
2023/05/05 10:42:02;;;;;;;6.78;5.78;;;;;;;;;;4984580;28;20022;-58
2023/05/05 10:44:32;;;;;;;6.97;6.03;;;;;;;;;;4978374;28;20041;-60
2023/05/05 10:46:57;;;;;;;6.38;5.35;;;;;;;;;;4982675;28;20029;-60
2023/05/05 10:49:33;;;;;;;7.88;6.75;;;;;;;;;;4984537;28;20034;-59
2023/05/05 10:51:58;;;;;;;14.50;8.18;;;;;;;;;;4981048;28;20030;-58
2023/05/05 10:54:31;;;;;;;6.72;6.13;;;;;;;;;;4980315;28;20128;-58
2023/05/05 10:57:00;;;;;;;7.03;6.35;;;;;;;;;;4979509;28;20156;-58
2023/05/05 10:59:34;;;;;;;7.38;6.68;;;;;;;;;;4977496;28;20158;-58
2023/05/05 11:02:00;;;;;;;10.48;5.97;;;;;;;;;;4969874;28;20044;-59
2023/05/05 11:04:25;;;;;;;8.63;5.32;;;;;;;;;;4978550;28;20606;-58
2023/05/05 11:07:09;;;;;;;5.97;5.38;;;;;;;;;;4979075;28;20046;-58
2023/05/05 11:09:37;;;;;;;9.90;5.70;;;;;;;;;;4980667;28;20145;-57
2023/05/05 11:12:04;;;;;;;7.85;6.38;;;;;;;;;;4978873;28;20041;-57
2023/05/05 11:14:29;;;;;;;6.70;6.05;;;;;;;;;;4980761;28;20039;-60
2023/05/05 11:16:55;;;;;;;8.27;7.38;;;;;;;;;;4978823;28;20061;-57
2023/05/05 11:19:39;;;;;;;7.38;6.10;;;;;;;;;;4979417;28;20061;-58
2023/05/05 11:22:05;;;;;;;11.07;5.88;;;;;;;;;;4979149;28;20571;-58
2023/05/05 11:24:30;;;;;;;9.40;5.90;;;;;;;;;;4980786;28;20038;-59
2023/05/05 11:26:56;;;;;;;5.38;4.85;;;;;;;;;;4979866;28;20037;-58
2023/05/05 11:29:21;;;;;;;6.07;5.57;;;;;;;;;;4980523;28;20065;-58
2023/05/05 11:32:06;;;;;;;6.13;5.47;;;;;;;;;;4979073;28;20505;-60
2023/05/05 11:34:31;;;;;;;;;;;;;;;;;;4980672;28;20050;-58
2023/05/05 11:37:03;;;;;;;9.10;6.30;;;;;;;;;;4978217;28;19914;-58
2023/05/05 11:39:40;;;;;;;7.80;5.82;;;;;;;;;;4978382;28;20039;-58
2023/05/05 11:42:05;;;;;;;5.97;5.05;;;;;;;;;;4984477;28;20031;-58
2023/05/05 11:44:31;;;;;;;6.18;4.97;;;;;;;;;;4983279;28;20583;-60
2023/05/05 11:46:58;;;;;;;5.47;5.07;;;;;;;;;;4982800;28;20065;-60
2023/05/05 11:49:25;;;;;;;9.07;5.97;;;;;;;;;;4983362;28;20548;-60
2023/05/05 11:52:00;;;;;;;5.47;4.97;;;;;;;;;;4982053;28;20545;-59
2023/05/05 11:54:25;;;;;;;5.55;4.78;;;;;;;;;;4984805;28;20307;-60
2023/05/05 11:56:54;;;;;;;6.13;4.72;;;;;;;;;;4984205;28;20097;-59
2023/05/05 11:59:20;;;;;;;6.68;4.63;;;;;;;;;;4984634;28;20062;-59
2023/05/05 12:01:46;;;;;;;5.10;4.70;;;;;;;;;;4985572;28;20130;-59
2023/05/05 12:04:12;;;;;;;6.05;5.35;;;;;;;;;;4984751;28;20481;-59
2023/05/05 12:06:38;;;;;;;6.47;4.40;;;;;;;;;;4983628;28;20408;-59
2023/05/05 12:09:04;;;;;;;7.75;4.85;;;;;;;;;;4983091;28;20561;-59
2023/05/05 12:11:29;;;;;;;8.25;5.03;;;;;;;;;;4981149;28;20449;-58
2023/05/05 12:14:10;;;;;;;8.35;5.55;;;;;;;;;;4985473;28;20038;-56
2023/05/05 12:16:36;;;;;;;10.20;4.45;;;;;;;;;;4983082;28;20615;-58
2023/05/05 12:19:04;;;;;;;5.18;4.68;;;;;;;;;;4983376;28;20057;-56
2023/05/05 12:21:30;;;;;;;5.75;4.20;;;;;;;;;;4982563;28;20536;-60
2023/05/05 12:23:55;;;;;;;5.22;4.35;;;;;;;;;;4981508;28;20046;-58
2023/05/05 12:26:30;;;;;;;4.35;3.95;;;;;;;;;;4981856;28;20049;-59
2023/05/05 12:28:56;;;;;;;;;;;;;;;;;;4982919;28;20038;-59
2023/05/05 12:31:21;;;;;;;13.55;8.85;;;;;;;;;;4980383;28;19918;-60
2023/05/05 12:33:47;;;;;;;6.40;4.50;;;;;;;;;;4982006;28;20852;-58
2023/05/05 12:36:14;;;;;;;4.63;4.13;;;;;;;;;;4983140;28;20062;-57
2023/05/05 12:38:40;;;;;;;6.63;5.10;;;;;;;;;;4981028;28;20158;-58
2023/05/05 12:41:06;;;;;;;6.03;4.43;;;;;;;;;;4982800;28;20041;-58
2023/05/05 12:43:32;;;;;;;531.22;495.45;;;;;;;;;;4983477;28;20057;-58
2023/05/05 12:45:58;;;;;;;9.90;4.57;;;;;;;;;;4983191;28;20029;-58
2023/05/05 12:48:23;;;;;;;5.32;4.05;;;;;;;;;;4980212;28;20073;-59
2023/05/05 12:50:49;;;;;;;8.43;5.88;;;;;;;;;;4976716;28;20866;-58
2023/05/05 12:53:21;;;;;;;6.07;5.50;;;;;;;;;;4979722;28;20145;-60
2023/05/05 12:55:47;;;;;;;4.25;3.92;;;;;;;;;;4982816;28;20118;-60
2023/05/05 12:58:12;;;;;;;5.28;4.40;;;;;;;;;;4986632;28;20471;-60
2023/05/05 13:00:38;;;;;;;6.60;4.32;;;;;;;;;;4980658;28;20588;-60
2023/05/05 13:03:05;;;;;;;7.95;4.88;;;;;;;;;;4976572;28;20066;-59
2023/05/05 13:05:31;;;;;;;4.75;3.90;;;;;;;;;;4978323;28;20042;-59
2023/05/05 13:07:56;;;;;;;4.78;4.15;;;;;;;;;;4965661;28;20045;-61
2023/05/05 13:10:23;;;;;;;5.22;4.40;;;;;;;;;;4969104;28;20402;-59
2023/05/05 13:12:49;;;;;;;4.70;4.22;;;;;;;;;;4979857;28;20453;-58
2023/05/05 13:15:15;;;;;;;5.90;4.70;;;;;;;;;;4978327;28;20089;-60
2023/05/05 13:17:41;;;;;;;4.95;4.45;;;;;;;;;;4979122;28;20058;-59
2023/05/05 13:20:07;;;;;;;4.90;4.18;;;;;;;;;;4980253;28;20042;-59
2023/05/05 13:22:32;;;;;;;6.70;4.53;;;;;;;;;;4981739;28;20038;-58
2023/05/05 13:24:58;;;;;;;8.15;4.75;;;;;;;;;;4979833;28;20038;-58
2023/05/05 13:27:23;;;;;;;6.85;5.57;;;;;;;;;;4985543;28;20039;-58
2023/05/05 13:29:49;;;;;;;5.80;4.45;;;;;;;;;;4980839;28;20391;-59
2023/05/05 13:32:14;;;;;;;4.50;3.90;;;;;;;;;;4981278;28;20146;-58
2023/05/05 13:34:42;;;;;;;4.05;3.78;;;;;;;;;;4982590;28;20379;-60
2023/05/05 13:37:07;;;;;;;3.85;3.55;;;;;;;;;;4981490;28;20565;-58
2023/05/05 13:39:33;;;;;;;4.78;4.47;;;;;;;;;;4981185;28;20117;-58
2023/05/05 13:41:59;;;;;;;4.25;3.85;;;;;;;;;;4980942;28;20030;-61
2023/05/05 13:44:24;;;;;;;4.05;3.65;;;;;;;;;;4981264;28;20049;-60
2023/05/05 13:46:50;;;;;;;5.25;4.47;;;;;;;;;;4980867;28;20042;-59
2023/05/05 13:49:16;;;;;;;3.53;3.22;;;;;;;;;;4982922;28;20041;-59
2023/05/05 13:51:41;;;;;;;4.47;3.92;;;;;;;;;;4982983;28;20401;-59
2023/05/05 13:54:07;;;;;;;4.28;3.10;;;;;;;;;;4981774;28;20099;-61
2023/05/05 13:56:33;;;;;;;5.00;4.00;;;;;;;;;;4982588;28;20034;-60
2023/05/05 13:58:58;;;;;;;6.28;3.90;;;;;;;;;;4981053;28;20038;-59
2023/05/05 14:01:24;;;;;;;4.30;3.92;;;;;;;;;;4980251;28;20038;-59
2023/05/05 14:03:49;;;;;;;5.85;3.95;;;;;;;;;;4982248;28;20042;-58
2023/05/05 14:06:15;;;;;;;5.13;4.40;;;;;;;;;;4984192;28;20033;-58
2023/05/05 14:08:40;;;;;;;3.60;3.35;;;;;;;;;;4986672;28;20042;-58
2023/05/05 14:11:06;;;;;;;4.90;4.50;;;;;;;;;;4982705;28;20489;-58
2023/05/05 14:13:31;;;;;;;5.13;4.70;;;;;;;;;;4982240;28;20168;-60
2023/05/05 14:15:57;;;;;;;4.35;4.05;;;;;;;;;;4980824;28;20369;-60
2023/05/05 14:18:23;;;;;;;8.43;4.57;;;;;;;;;;4983589;28;20042;-58
2023/05/05 14:20:49;;;;;;;4.25;3.85;;;;;;;;;;4983257;28;20044;-59
2023/05/05 14:23:14;;;;;;;4.65;3.97;;;;;;;;;;4982481;28;20587;-58
2023/05/05 14:25:40;;;;;;;4.30;4.00;;;;;;;;;;4982351;28;20093;-60
2023/05/05 14:28:06;;;;;;;5.85;5.35;;;;;;;;;;4984469;28;20090;-59
2023/05/05 14:30:31;;;;;;;4.78;4.15;;;;;;;;;;4980430;28;20046;-58
2023/05/05 14:32:57;;;;;;;4.90;4.60;;;;;;;;;;4982171;28;20560;-60
2023/05/05 14:35:23;;;;;;;5.32;3.97;;;;;;;;;;4982988;28;20042;-61
2023/05/05 14:37:48;;;;;;;5.22;4.82;;;;;;;;;;4981727;28;20114;-57
2023/05/05 14:40:14;;;;;;;4.72;4.30;;;;;;;;;;4978523;28;20037;-56
2023/05/05 14:42:39;;;;;;;4.38;4.03;;;;;;;;;;4976846;28;20489;-58